createdAt,value
2023-05-19T00:02:20.981Z,15.24
2023-05-19T00:04:48.340Z,15.11
2023-05-19T00:07:18.180Z,15.13
2023-05-19T00:09:44.949Z,15.00
2023-05-19T00:12:12.255Z,15.00
2023-05-19T00:14:38.927Z,14.97
2023-05-19T00:17:05.852Z,14.95
2023-05-19T00:19:32.423Z,14.77
2023-05-19T00:21:59.124Z,14.83
2023-05-19T00:24:25.641Z,14.89
2023-05-19T00:26:52.343Z,14.83
2023-05-19T00:29:19.126Z,14.77
2023-05-19T00:31:46.212Z,14.86
2023-05-19T00:34:12.803Z,14.86
2023-05-19T00:36:39.366Z,14.81
2023-05-19T00:39:06.001Z,14.94
2023-05-19T00:41:32.622Z,14.86
2023-05-19T00:43:59.761Z,14.72
2023-05-19T00:46:26.274Z,14.88
2023-05-19T00:48:53.107Z,14.69
2023-05-19T00:51:19.972Z,14.45
2023-05-19T00:53:49.490Z,14.51
2023-05-19T00:56:16.849Z,14.38
2023-05-19T00:58:44.118Z,14.44
2023-05-19T01:01:12.084Z,14.42
2023-05-19T01:03:40.914Z,14.52
2023-05-19T01:06:08.086Z,14.42
2023-05-19T01:08:36.720Z,14.61
2023-05-19T01:11:04.340Z,14.51
2023-05-19T01:13:31.640Z,14.20
2023-05-19T01:16:07.673Z,14.46
2023-05-19T01:18:56.737Z,14.45
2023-05-19T01:21:48.888Z,14.47
2023-05-19T01:24:34.112Z,14.54
2023-05-19T01:27:14.399Z,14.54
2023-05-19T01:30:17.847Z,14.59
2023-05-19T01:32:45.829Z,14.43
2023-05-19T01:35:15.453Z,14.58
2023-05-19T01:37:42.685Z,14.58
2023-05-19T01:40:10.047Z,14.51
2023-05-19T01:42:39.840Z,14.52
2023-05-19T01:45:10.626Z,14.42
2023-05-19T01:47:42.897Z,14.28
2023-05-19T01:50:10.141Z,14.36
2023-05-19T01:52:36.753Z,14.41
2023-05-19T01:55:03.569Z,14.26
2023-05-19T01:57:52.224Z,14.25
2023-05-19T02:00:52.126Z,14.30
2023-05-19T02:03:36.997Z,14.31
2023-05-19T02:06:18.398Z,14.23
2023-05-19T02:08:56.651Z,14.26
2023-05-19T02:11:30.869Z,14.33
2023-05-19T02:14:01.399Z,14.38
2023-05-19T02:16:29.321Z,14.44
2023-05-19T02:18:56.493Z,14.18
2023-05-19T02:21:22.990Z,14.25
2023-05-19T02:23:50.803Z,14.39
2023-05-19T02:26:17.324Z,14.26
2023-05-19T02:28:43.832Z,14.29
2023-05-19T02:31:10.337Z,14.29
2023-05-19T02:33:37.426Z,14.06
2023-05-19T02:36:04.413Z,14.00
2023-05-19T02:38:30.968Z,14.08
2023-05-19T02:40:57.445Z,14.06
2023-05-19T02:43:23.878Z,13.93
2023-05-19T02:45:50.367Z,14.01
2023-05-19T02:48:16.846Z,14.00
2023-05-19T02:50:43.318Z,14.07
2023-05-19T02:53:09.855Z,13.89
2023-05-19T02:55:36.619Z,13.91
2023-05-19T02:58:03.174Z,13.84
2023-05-19T03:00:29.834Z,13.73
2023-05-19T03:02:56.490Z,13.55
2023-05-19T03:05:23.000Z,13.64
2023-05-19T03:07:49.544Z,13.78
2023-05-19T03:10:16.260Z,13.77
2023-05-19T03:12:42.720Z,13.85
2023-05-19T03:15:09.522Z,13.72
2023-05-19T03:17:36.245Z,13.80
2023-05-19T03:20:02.907Z,13.80
2023-05-19T03:22:29.629Z,13.87
2023-05-19T03:24:56.247Z,13.80
2023-05-19T03:27:22.669Z,13.84
2023-05-19T03:29:49.151Z,13.78
2023-05-19T03:32:15.864Z,13.85
2023-05-19T03:34:42.408Z,13.88
2023-05-19T03:37:10.677Z,13.79
2023-05-19T03:39:37.157Z,13.78
2023-05-19T03:42:03.717Z,13.90
2023-05-19T03:44:30.570Z,13.83
2023-05-19T03:46:57.332Z,13.89
2023-05-19T03:49:23.772Z,13.92
2023-05-19T03:51:50.468Z,13.83
2023-05-19T03:54:17.049Z,13.73
2023-05-19T03:56:43.664Z,13.65
2023-05-19T03:59:13.032Z,13.55
2023-05-19T04:01:39.667Z,13.58
2023-05-19T04:04:06.164Z,13.65
2023-05-19T04:06:33.868Z,13.68
2023-05-19T04:09:00.426Z,13.51
2023-05-19T04:11:26.903Z,13.56
2023-05-19T04:13:53.444Z,13.46
2023-05-19T04:16:19.986Z,13.58
2023-05-19T04:18:46.649Z,13.65
2023-05-19T04:21:13.327Z,13.74
2023-05-19T04:23:39.835Z,13.33
2023-05-19T04:26:06.910Z,13.59
2023-05-19T04:28:36.073Z,13.76
2023-05-19T04:31:03.525Z,13.60
2023-05-19T04:33:30.043Z,13.74
2023-05-19T04:35:56.910Z,13.76
2023-05-19T04:38:23.482Z,13.84
2023-05-19T04:40:51.975Z,13.88
2023-05-19T04:43:19.308Z,14.00
2023-05-19T04:45:47.368Z,14.12
2023-05-19T04:48:14.031Z,14.19
2023-05-19T04:50:42.231Z,14.32
2023-05-19T04:53:09.584Z,14.27
2023-05-19T04:55:37.081Z,14.44
2023-05-19T04:58:04.356Z,14.60
2023-05-19T05:00:31.099Z,14.54
2023-05-19T05:02:58.094Z,14.67
2023-05-19T05:05:27.276Z,14.79
2023-05-19T05:07:54.217Z,14.53
2023-05-19T05:10:21.734Z,14.46
2023-05-19T05:12:48.484Z,14.51
2023-05-19T05:15:15.456Z,14.65
2023-05-19T05:17:42.306Z,14.78
2023-05-19T05:20:10.228Z,14.72
2023-05-19T05:22:38.571Z,14.88
2023-05-19T05:25:05.743Z,14.99
2023-05-19T05:27:32.684Z,15.14
2023-05-19T05:29:59.338Z,15.85
2023-05-19T05:32:26.106Z,16.65
2023-05-19T05:34:52.825Z,17.06
2023-05-19T05:37:19.278Z,17.04
2023-05-19T05:39:46.209Z,17.54
2023-05-19T05:42:12.705Z,18.08
2023-05-19T05:44:39.364Z,18.33
2023-05-19T05:47:06.329Z,18.32
2023-05-19T05:49:33.113Z,18.65
2023-05-19T05:52:05.709Z,18.41
2023-05-19T05:54:33.526Z,18.92
2023-05-19T05:57:00.656Z,19.32
2023-05-19T05:59:27.517Z,19.22
2023-05-19T06:01:54.159Z,19.94
2023-05-19T06:04:21.362Z,19.05
2023-05-19T06:06:47.910Z,19.26
2023-05-19T06:09:14.376Z,19.02
2023-05-19T06:11:41.024Z,18.97
2023-05-19T06:14:07.508Z,19.24
2023-05-19T06:16:34.054Z,18.76
2023-05-19T06:19:00.675Z,18.66
2023-05-19T06:21:27.462Z,18.54
2023-05-19T06:23:54.242Z,18.89
2023-05-19T06:26:20.912Z,18.91
2023-05-19T06:28:47.477Z,18.56
2023-05-19T06:31:14.027Z,18.62
2023-05-19T06:33:40.648Z,18.62
2023-05-19T06:36:08.518Z,18.20
2023-05-19T06:38:34.981Z,18.16
2023-05-19T06:41:01.474Z,18.64
2023-05-19T06:43:29.088Z,18.46
2023-05-19T06:45:55.774Z,18.50
2023-05-19T06:48:22.172Z,18.55
2023-05-19T06:50:48.979Z,18.35
2023-05-19T06:53:17.593Z,17.23
2023-05-19T06:55:54.796Z,17.07
2023-05-19T06:58:26.681Z,17.45
2023-05-19T07:00:53.330Z,16.84
2023-05-19T07:03:19.920Z,16.84
2023-05-19T07:05:46.617Z,16.06
2023-05-19T07:08:13.040Z,16.15
2023-05-19T07:10:39.617Z,16.18
2023-05-19T07:13:06.445Z,16.75
2023-05-19T07:15:33.077Z,17.09
2023-05-19T07:17:59.674Z,16.92
2023-05-19T07:20:26.366Z,16.91
2023-05-19T07:22:52.867Z,16.05
2023-05-19T07:25:19.419Z,16.24
2023-05-19T07:27:45.960Z,16.00
2023-05-19T07:30:12.827Z,16.13
2023-05-19T07:32:39.303Z,15.91
2023-05-19T07:35:06.641Z,15.61
2023-05-19T07:37:33.077Z,15.85
2023-05-19T07:39:59.618Z,15.58
2023-05-19T07:42:26.086Z,15.66
2023-05-19T07:44:52.530Z,15.69
2023-05-19T07:47:19.032Z,15.59
2023-05-19T07:49:45.685Z,15.93
2023-05-19T07:52:12.149Z,15.67
2023-05-19T07:54:38.660Z,15.98
2023-05-19T07:57:05.787Z,15.82
2023-05-19T07:59:32.470Z,15.91
2023-05-19T08:01:58.988Z,15.85
2023-05-19T08:04:25.465Z,15.64
2023-05-19T08:06:53.145Z,15.70
2023-05-19T08:09:20.194Z,15.65
2023-05-19T08:11:50.009Z,15.20
2023-05-19T08:14:16.816Z,15.76
2023-05-19T08:16:44.063Z,15.76
2023-05-19T08:19:10.687Z,16.05
2023-05-19T08:21:37.324Z,16.29
2023-05-19T08:24:04.380Z,16.10
2023-05-19T08:26:30.863Z,16.40
2023-05-19T08:28:57.380Z,16.29
2023-05-19T08:31:24.869Z,16.36
2023-05-19T08:33:51.420Z,16.54
2023-05-19T08:36:18.325Z,16.32
2023-05-19T08:38:44.929Z,16.17
2023-05-19T08:41:11.422Z,16.24
2023-05-19T08:43:39.696Z,16.64
2023-05-19T08:46:08.145Z,16.66
2023-05-19T08:48:35.870Z,16.99
2023-05-19T08:51:11.306Z,16.85
2023-05-19T08:53:43.941Z,16.96
2023-05-19T08:56:22.022Z,16.80
2023-05-19T08:58:50.453Z,16.82
2023-05-19T09:01:18.439Z,16.87
2023-05-19T09:03:46.760Z,17.02
2023-05-19T09:06:13.411Z,16.51
2023-05-19T09:08:41.448Z,17.06
2023-05-19T09:11:09.715Z,16.94
2023-05-19T09:13:36.327Z,17.15
2023-05-19T09:16:03.508Z,16.99
2023-05-19T09:18:31.145Z,16.97
2023-05-19T09:21:00.259Z,16.41
2023-05-19T09:23:33.387Z,16.52
2023-05-19T09:26:05.037Z,16.40
2023-05-19T09:28:33.482Z,16.86
2023-05-19T09:31:07.294Z,16.86
2023-05-19T09:33:39.102Z,16.90
2023-05-19T09:36:08.352Z,16.97
2023-05-19T09:38:36.415Z,17.14
2023-05-19T09:41:05.696Z,16.86
2023-05-19T09:43:34.174Z,16.82
2023-05-19T09:46:04.852Z,16.72
2023-05-19T09:48:31.568Z,17.04
2023-05-19T09:50:58.247Z,17.05
2023-05-19T09:53:25.539Z,16.76
2023-05-19T09:55:58.934Z,16.77
2023-05-19T09:58:26.606Z,17.02
2023-05-19T10:00:54.803Z,16.93
2023-05-19T10:03:23.888Z,16.75
2023-05-19T10:05:50.450Z,16.81
2023-05-19T10:08:17.948Z,16.42
2023-05-19T10:10:48.287Z,16.28
2023-05-19T10:13:16.583Z,16.21
2023-05-19T10:15:57.327Z,16.39
2023-05-19T10:18:26.622Z,16.06
2023-05-19T10:20:54.285Z,16.05
2023-05-19T10:23:21.178Z,16.12
2023-05-19T10:25:49.243Z,16.53
2023-05-19T10:28:18.897Z,16.33
2023-05-19T10:30:49.357Z,15.74
2023-05-19T10:33:18.262Z,16.15
2023-05-19T10:36:13.841Z,16.33
2023-05-19T10:38:48.333Z,15.92
2023-05-19T10:41:41.749Z,16.00
2023-05-19T10:44:26.818Z,15.85
2023-05-19T10:46:55.751Z,15.94
2023-05-19T10:49:24.045Z,16.42
2023-05-19T10:51:52.325Z,16.61
2023-05-19T10:54:40.720Z,16.07
2023-05-19T10:57:08.501Z,15.95
2023-05-19T10:59:37.883Z,16.13
2023-05-19T11:02:05.321Z,16.02
2023-05-19T11:04:51.321Z,16.73
2023-05-19T11:07:24.581Z,16.34
2023-05-19T11:09:54.378Z,16.35
2023-05-19T11:12:25.472Z,16.50
2023-05-19T11:14:55.532Z,16.39
2023-05-19T11:17:26.097Z,16.36
2023-05-19T11:19:55.534Z,16.47
2023-05-19T11:22:26.907Z,16.59
2023-05-19T11:24:57.690Z,16.81
2023-05-19T11:27:34.648Z,16.54
2023-05-19T11:30:19.202Z,16.37
2023-05-19T11:32:48.214Z,16.35
2023-05-19T11:35:15.732Z,16.54
2023-05-19T11:37:42.733Z,16.73
2023-05-19T11:40:09.555Z,16.71
2023-05-19T11:42:36.972Z,16.62
2023-05-19T11:45:04.232Z,16.91
2023-05-19T11:47:42.584Z,16.71
2023-05-19T11:50:20.166Z,16.88
2023-05-19T11:52:47.567Z,17.02
2023-05-19T11:55:24.200Z,16.74
2023-05-19T12:00:37.159Z,16.58
2023-05-19T12:03:04.213Z,16.63
2023-05-19T12:05:34.504Z,16.21
2023-05-19T12:08:02.821Z,15.92
2023-05-19T12:10:31.541Z,15.47
2023-05-19T12:12:59.309Z,15.79
2023-05-19T12:15:25.965Z,16.06
2023-05-19T12:18:01.510Z,16.42
2023-05-19T12:20:29.693Z,16.69
2023-05-19T12:22:56.420Z,16.17
2023-05-19T12:25:23.665Z,16.51
2023-05-19T12:27:52.687Z,16.07
2023-05-19T12:30:26.192Z,15.93
2023-05-19T12:32:54.222Z,15.47
2023-05-19T12:35:23.243Z,15.84
2023-05-19T12:37:50.567Z,16.25
2023-05-19T12:40:17.317Z,16.80
2023-05-19T12:42:48.736Z,17.17
2023-05-19T12:45:15.594Z,16.85
2023-05-19T12:47:42.077Z,16.16
2023-05-19T12:50:10.338Z,16.47
2023-05-19T12:52:53.058Z,16.35
2023-05-19T12:55:20.915Z,16.92
2023-05-19T12:57:54.759Z,16.88
2023-05-19T13:00:25.177Z,17.03
2023-05-19T13:02:59.853Z,17.06
2023-05-19T13:05:31.229Z,17.26
2023-05-19T13:07:59.196Z,17.35
2023-05-19T13:10:27.711Z,17.55
2023-05-19T13:12:55.661Z,17.51
2023-05-19T13:15:23.624Z,17.55
2023-05-19T13:17:50.434Z,17.49
2023-05-19T13:20:17.007Z,17.46
2023-05-19T13:22:43.445Z,17.30
2023-05-19T13:25:10.697Z,17.63
2023-05-19T13:27:37.752Z,18.06
2023-05-19T13:30:05.082Z,18.01
2023-05-19T13:32:31.586Z,17.81
2023-05-19T13:34:58.679Z,17.78
2023-05-19T13:37:25.355Z,17.81
2023-05-19T13:39:53.194Z,18.00
2023-05-19T13:42:19.772Z,17.45
2023-05-19T13:44:47.825Z,17.46
2023-05-19T13:47:14.360Z,17.21
2023-05-19T13:49:41.522Z,17.18
2023-05-19T13:52:08.251Z,17.17
2023-05-19T13:54:35.055Z,17.22
2023-05-19T13:57:01.551Z,17.72
2023-05-19T13:59:28.651Z,17.45
2023-05-19T14:01:55.658Z,17.20
2023-05-19T14:04:23.682Z,17.44
2023-05-19T14:06:50.650Z,17.61
2023-05-19T14:09:17.346Z,17.91
2023-05-19T14:11:44.069Z,17.75
2023-05-19T14:14:11.601Z,17.91
2023-05-19T14:16:38.580Z,18.13
2023-05-19T14:19:05.098Z,17.79
2023-05-19T14:21:32.542Z,18.38
2023-05-19T14:23:59.037Z,17.02
2023-05-19T14:26:27.457Z,16.95
2023-05-19T14:28:56.945Z,17.37
2023-05-19T14:31:23.983Z,17.33
2023-05-19T14:33:51.383Z,17.50
2023-05-19T14:36:18.392Z,17.87
2023-05-19T14:38:44.928Z,17.86
2023-05-19T14:41:11.589Z,17.80
2023-05-19T14:43:38.077Z,18.28
2023-05-19T14:46:04.625Z,17.96
2023-05-19T14:48:31.112Z,17.81
2023-05-19T14:50:57.557Z,17.92
2023-05-19T14:53:24.041Z,17.57
2023-05-19T14:55:50.528Z,17.52
2023-05-19T14:58:28.254Z,17.87
2023-05-19T15:00:58.119Z,17.52
2023-05-19T15:03:24.979Z,17.44
2023-05-19T15:05:51.690Z,17.37
2023-05-19T15:08:18.206Z,17.54
2023-05-19T15:10:48.676Z,17.01
2023-05-19T15:13:15.509Z,16.49
2023-05-19T15:15:41.996Z,16.65
2023-05-19T15:18:08.473Z,16.70
2023-05-19T15:20:35.278Z,16.99
2023-05-19T15:23:02.072Z,17.10
2023-05-19T15:25:28.628Z,17.16
2023-05-19T15:27:55.221Z,16.91
2023-05-19T15:30:22.126Z,17.05
2023-05-19T15:32:48.953Z,16.97
2023-05-19T15:35:16.904Z,17.31
2023-05-19T15:37:43.676Z,17.13
2023-05-19T15:40:10.492Z,17.14
2023-05-19T15:42:37.134Z,17.48
2023-05-19T15:45:04.112Z,17.52
2023-05-19T15:47:30.650Z,17.45
2023-05-19T15:49:57.119Z,17.77
2023-05-19T15:52:23.683Z,17.90
2023-05-19T15:54:50.223Z,17.63
2023-05-19T15:57:17.067Z,17.42
2023-05-19T15:59:43.767Z,17.83
2023-05-19T16:02:11.361Z,18.02
2023-05-19T16:04:37.972Z,18.06
2023-05-19T16:07:04.589Z,18.05
2023-05-19T16:09:31.208Z,18.25
2023-05-19T16:11:57.756Z,18.45
2023-05-19T16:14:24.466Z,18.44
2023-05-19T16:16:51.409Z,18.49
2023-05-19T16:19:18.280Z,18.26
2023-05-19T16:21:45.020Z,18.14
2023-05-19T16:24:11.518Z,18.07
2023-05-19T16:26:38.063Z,18.02
2023-05-19T16:29:04.908Z,17.72
2023-05-19T16:31:31.435Z,17.82
2023-05-19T16:33:58.254Z,17.99
2023-05-19T16:36:24.993Z,18.10
2023-05-19T16:38:51.460Z,18.25
2023-05-19T16:41:18.127Z,18.39
2023-05-19T16:43:44.980Z,18.46
2023-05-19T16:46:12.521Z,18.32
2023-05-19T16:48:39.083Z,18.10
2023-05-19T16:51:05.773Z,18.08
2023-05-19T16:53:32.396Z,18.09
2023-05-19T16:55:59.301Z,18.04
2023-05-19T16:58:27.200Z,17.98
2023-05-19T17:00:56.934Z,18.03
2023-05-19T17:03:24.007Z,18.04
2023-05-19T17:05:50.731Z,17.98
2023-05-19T17:08:17.152Z,17.67
2023-05-19T17:10:44.770Z,17.51
2023-05-19T17:13:11.761Z,17.58
2023-05-19T17:15:38.378Z,17.62
2023-05-19T17:18:05.761Z,17.68
2023-05-19T17:20:32.445Z,17.53
2023-05-19T17:22:59.329Z,17.33
2023-05-19T17:25:25.965Z,17.47
2023-05-19T17:27:52.515Z,17.75
2023-05-19T17:30:19.118Z,17.73
2023-05-19T17:32:45.884Z,17.83
2023-05-19T17:35:12.857Z,17.83
2023-05-19T17:37:39.602Z,17.91
2023-05-19T17:40:06.831Z,18.00
2023-05-19T17:42:33.446Z,17.95
2023-05-19T17:45:00.170Z,18.01
2023-05-19T17:47:26.750Z,18.01
2023-05-19T17:49:53.499Z,17.95
2023-05-19T17:52:20.583Z,17.95
2023-05-19T17:54:47.560Z,17.92
2023-05-19T17:57:16.967Z,17.78
2023-05-19T17:59:43.853Z,17.82
2023-05-19T18:02:10.768Z,17.77
2023-05-19T18:04:37.930Z,17.63
2023-05-19T18:07:06.150Z,17.48
2023-05-19T18:09:35.744Z,17.38
2023-05-19T18:12:02.805Z,17.31
2023-05-19T18:14:29.706Z,17.23
2023-05-19T18:16:56.349Z,17.15
2023-05-19T18:19:22.870Z,16.97
2023-05-19T18:21:49.423Z,16.97
2023-05-19T18:24:16.195Z,16.89
2023-05-19T18:26:43.469Z,16.84
2023-05-19T18:29:11.042Z,16.74
2023-05-19T18:31:37.818Z,16.62
2023-05-19T18:34:04.686Z,16.43
2023-05-19T18:36:31.639Z,16.25
2023-05-19T18:38:59.186Z,16.06
2023-05-19T18:41:26.135Z,15.88
2023-05-19T18:43:52.682Z,15.74
2023-05-19T18:46:19.847Z,15.59
2023-05-19T18:48:47.640Z,15.46
2023-05-19T18:51:15.715Z,15.34
2023-05-19T18:53:42.282Z,15.22
2023-05-19T18:56:11.330Z,15.11
2023-05-19T18:58:37.899Z,14.99
2023-05-19T19:01:05.307Z,14.89
2023-05-19T19:03:32.253Z,14.79
2023-05-19T19:05:59.576Z,14.69
2023-05-19T19:08:26.344Z,14.60
2023-05-19T19:10:53.617Z,14.53
2023-05-19T19:13:20.603Z,14.46
2023-05-19T19:15:47.028Z,14.39
2023-05-19T19:18:13.793Z,14.37
2023-05-19T19:20:40.293Z,14.32
2023-05-19T19:23:06.898Z,14.29
2023-05-19T19:25:33.579Z,14.25
2023-05-19T19:28:00.167Z,14.24
2023-05-19T19:30:27.210Z,14.22
2023-05-19T19:32:54.850Z,14.21
2023-05-19T19:35:21.762Z,14.22
2023-05-19T19:37:48.464Z,14.25
2023-05-19T19:40:14.880Z,14.24
2023-05-19T19:42:41.346Z,14.26
2023-05-19T19:45:13.117Z,14.27
2023-05-19T19:47:41.754Z,14.19
2023-05-19T19:50:09.182Z,14.16
2023-05-19T19:52:35.661Z,14.10
2023-05-19T19:55:02.107Z,14.08
2023-05-19T19:57:29.996Z,14.12
2023-05-19T19:59:59.833Z,14.19
2023-05-19T20:02:26.466Z,14.27
2023-05-19T20:04:53.145Z,14.40
2023-05-19T20:07:20.878Z,14.50
2023-05-19T20:09:49.484Z,14.54
2023-05-19T20:12:16.097Z,14.57
2023-05-19T20:14:42.556Z,14.66
2023-05-19T20:17:09.102Z,14.63
2023-05-19T20:19:35.843Z,14.58
2023-05-19T20:22:02.404Z,14.57
2023-05-19T20:24:28.894Z,14.62
2023-05-19T20:26:55.307Z,14.66
2023-05-19T20:29:23.777Z,14.77
2023-05-19T20:31:50.242Z,14.75
2023-05-19T20:34:16.713Z,14.73
2023-05-19T20:36:43.193Z,14.63
2023-05-19T20:39:10.182Z,14.62
2023-05-19T20:41:37.026Z,14.58
2023-05-19T20:44:03.660Z,14.70
2023-05-19T20:46:30.319Z,14.77
2023-05-19T20:48:57.023Z,14.72
2023-05-19T20:51:25.198Z,14.72
2023-05-19T20:53:51.700Z,14.65
2023-05-19T20:56:19.666Z,14.62
2023-05-19T20:58:46.209Z,14.65
2023-05-19T21:01:12.827Z,14.70
2023-05-19T21:03:39.310Z,14.68
2023-05-19T21:06:05.850Z,14.68
2023-05-19T21:08:32.315Z,14.65
2023-05-19T21:10:59.492Z,14.71
2023-05-19T21:13:25.956Z,14.77
2023-05-19T21:15:52.460Z,14.75
2023-05-19T21:18:18.909Z,14.70
2023-05-19T21:20:45.322Z,14.63
2023-05-19T21:23:11.761Z,14.62
2023-05-19T21:25:45.409Z,14.57
2023-05-19T21:28:12.279Z,14.52
2023-05-19T21:30:38.868Z,14.50
2023-05-19T21:33:05.685Z,14.42
2023-05-19T21:35:32.400Z,14.39
2023-05-19T21:38:03.889Z,14.33
2023-05-19T21:40:35.600Z,14.27
2023-05-19T21:43:02.309Z,14.27
2023-05-19T21:45:29.106Z,14.31
2023-05-19T21:47:55.838Z,14.24
2023-05-19T21:50:22.405Z,14.24
2023-05-19T21:52:48.816Z,14.21
2023-05-19T21:55:15.669Z,14.26
2023-05-19T21:57:42.300Z,14.26
2023-05-19T22:00:12.840Z,14.27
2023-05-19T22:02:40.407Z,14.27
2023-05-19T22:05:06.987Z,14.21
2023-05-19T22:07:33.517Z,14.20
2023-05-19T22:10:00.075Z,14.23
2023-05-19T22:12:26.523Z,14.23
2023-05-19T22:14:53.018Z,14.21
2023-05-19T22:17:21.819Z,14.19
2023-05-19T22:19:48.312Z,14.16
2023-05-19T22:22:14.941Z,14.11
2023-05-19T22:24:41.743Z,14.05
2023-05-19T22:27:08.706Z,13.99
2023-05-19T22:29:38.400Z,14.07
2023-05-19T22:32:07.578Z,14.09
2023-05-19T22:34:34.041Z,14.05
2023-05-19T22:37:00.613Z,14.06
2023-05-19T22:39:27.125Z,14.06
2023-05-19T22:41:53.649Z,14.08
2023-05-19T22:44:20.287Z,14.07
2023-05-19T22:46:46.842Z,14.08
2023-05-19T22:49:13.331Z,14.03
2023-05-19T22:51:40.028Z,14.06
2023-05-19T22:54:07.923Z,14.07
2023-05-19T22:56:34.594Z,14.08
2023-05-19T22:59:01.435Z,14.07
2023-05-19T23:01:27.963Z,14.06
2023-05-19T23:03:54.678Z,14.02
2023-05-19T23:06:21.910Z,14.01
2023-05-19T23:08:58.521Z,13.98
2023-05-19T23:11:25.021Z,13.92
2023-05-19T23:13:51.490Z,13.92
2023-05-19T23:16:18.032Z,13.88
2023-05-19T23:18:44.580Z,13.82
2023-05-19T23:21:11.074Z,13.84
2023-05-19T23:23:37.593Z,13.84
2023-05-19T23:26:04.169Z,13.84
2023-05-19T23:28:30.622Z,13.83
2023-05-19T23:30:57.224Z,13.83
2023-05-19T23:33:23.709Z,13.81
2023-05-19T23:35:50.271Z,13.83
2023-05-19T23:38:16.710Z,13.84
2023-05-19T23:40:43.869Z,13.84
2023-05-19T23:43:10.621Z,13.87
2023-05-19T23:45:37.183Z,13.87
2023-05-19T23:48:04.081Z,13.88
2023-05-19T23:50:30.691Z,13.91
2023-05-19T23:52:57.119Z,13.96
2023-05-19T23:55:23.573Z,14.01
2023-05-19T23:57:50.049Z,14.06
